Time;durP1;ratioP1;P1;durP2;ratioP2;P2;SDS_P1;SDS_P2;PMS_P1;PMS_P2;Temp;Humidity;BMP_temperature;BMP_pressure;BME280_temperature;BME280_humidity;BME280_pressure;Samples;Min_cycle;Max_cycle;Signal;HPM_P1;HPM_P2
2022/12/19 00:01:25;;;;;;;36.95;24.35;;;1.00;99.90;;;;;;5127649;27;20042;-52
2022/12/19 00:03:56;;;;;;;43.22;25.77;;;0.90;99.90;;;;;;5125758;27;20031;-53
2022/12/19 00:06:22;;;;;;;35.83;23.13;;;0.90;99.90;;;;;;5125180;27;20086;-52
2022/12/19 00:08:49;;;;;;;34.53;22.85;;;0.90;99.90;;;;;;5131276;27;20103;-54
2022/12/19 00:11:16;;;;;;;36.05;23.60;;;0.90;99.90;;;;;;5129425;27;20455;-52
2022/12/19 00:13:42;;;;;;;34.90;22.83;;;0.90;99.90;;;;;;5125331;27;20115;-54
2022/12/19 00:16:12;;;;;;;34.47;22.75;;;1.00;99.90;;;;;;5102548;27;21681;-51
2022/12/19 00:18:42;;;;;;;35.33;23.40;;;1.00;99.90;;;;;;5124067;27;20701;-50
2022/12/19 00:21:10;;;;;;;35.28;22.60;;;1.00;99.90;;;;;;5124072;27;20927;-54
2022/12/19 00:23:36;;;;;;;36.08;24.33;;;1.00;99.90;;;;;;5126595;27;20043;-51
2022/12/19 00:26:13;;;;;;;37.65;23.65;;;1.00;99.90;;;;;;5129635;27;20305;-51
2022/12/19 00:28:41;;;;;;;36.20;23.23;;;1.00;99.90;;;;;;5122537;27;20042;-54
2022/12/19 00:31:06;;;;;;;37.33;23.43;;;1.00;99.90;;;;;;5126015;27;20479;-50
2022/12/19 00:33:32;;;;;;;39.50;24.02;;;1.00;99.90;;;;;;5122359;27;20046;-55
2022/12/19 00:36:04;;;;;;;35.53;22.75;;;1.10;99.90;;;;;;5123062;27;20046;-52
2022/12/19 00:38:30;;;;;;;35.17;23.90;;;1.10;99.90;;;;;;5123867;27;20047;-55
2022/12/19 00:41:09;;;;;;;39.63;24.65;;;1.10;99.90;;;;;;5127622;27;20050;-51
2022/12/19 00:43:36;;;;;;;36.08;23.30;;;1.20;99.90;;;;;;5122874;27;20055;-51
2022/12/19 00:46:07;;;;;;;35.47;23.23;;;1.20;99.90;;;;;;5125318;27;20125;-55
2022/12/19 00:48:33;;;;;;;36.35;22.58;;;1.20;99.90;;;;;;5123213;27;20062;-52
2022/12/19 00:51:04;;;;;;;33.20;21.92;;;1.30;99.90;;;;;;5120840;27;20440;-51
2022/12/19 00:53:30;;;;;;;34.47;22.85;;;1.30;99.90;;;;;;5124429;27;20675;-53
2022/12/19 00:55:55;;;;;;;34.92;21.45;;;1.30;99.90;;;;;;5122398;27;20503;-50
2022/12/19 00:58:22;;;;;;;35.47;22.42;;;1.30;99.90;;;;;;5120755;27;20050;-54
2022/12/19 01:00:48;;;;;;;37.85;24.00;;;1.40;99.90;;;;;;5121640;27;21316;-50
2022/12/19 01:03:13;;;;;;;39.08;24.52;;;1.40;99.90;;;;;;5126362;27;20118;-51
2022/12/19 01:05:39;;;;;;;31.83;21.30;;;1.40;99.90;;;;;;5123001;27;20035;-52
2022/12/19 01:08:05;;;;;;;38.05;23.98;;;1.40;99.90;;;;;;5128045;27;20031;-50
2022/12/19 01:10:30;;;;;;;37.08;22.27;;;1.40;99.90;;;;;;5129829;27;20035;-50
2022/12/19 01:12:56;;;;;;;34.38;21.60;;;1.40;99.90;;;;;;5127063;27;20046;-50
2022/12/19 01:15:21;;;;;;;34.42;23.10;;;1.50;99.90;;;;;;5131479;27;20437;-54
2022/12/19 01:17:48;;;;;;;34.28;23.42;;;1.50;99.90;;;;;;5110617;27;20074;-55
2022/12/19 01:20:19;;;;;;;37.72;23.77;;;1.50;99.90;;;;;;5130156;27;20464;-50
2022/12/19 01:22:45;;;;;;;35.92;22.73;;;1.50;99.90;;;;;;5127639;27;20039;-54
2022/12/19 01:25:11;;;;;;;37.90;23.75;;;1.50;99.90;;;;;;5126470;27;20057;-52
2022/12/19 01:27:37;;;;;;;37.88;20.98;;;1.60;99.90;;;;;;5140391;27;20053;-54
2022/12/19 01:30:04;;;;;;;36.33;23.73;;;1.60;99.90;;;;;;5128563;27;20035;-51
2022/12/19 01:32:30;;;;;;;36.13;22.95;;;1.50;99.90;;;;;;5128197;27;20439;-55
2022/12/19 01:34:55;;;;;;;37.17;23.25;;;1.60;99.90;;;;;;5124200;27;20068;-54
2022/12/19 01:37:21;;;;;;;33.85;22.50;;;1.60;99.90;;;;;;5134724;27;20042;-54
2022/12/19 01:39:47;;;;;;;38.10;23.92;;;1.60;99.90;;;;;;5125811;27;20395;-55
2022/12/19 01:42:19;;;;;;;38.70;24.95;;;1.60;99.90;;;;;;5122592;27;20063;-52
2022/12/19 01:45:06;;;;;;;39.72;25.42;;;1.60;99.90;;;;;;5127253;27;20043;-55
2022/12/19 01:47:33;;;;;;;38.17;25.07;;;;;;;;;;5120546;27;20042;-51
2022/12/19 01:50:00;;;;;;;36.10;23.60;;;1.70;99.90;;;;;;5123586;27;20088;-55
2022/12/19 01:52:25;;;;;;;36.47;24.00;;;1.70;99.90;;;;;;5119700;27;20483;-55
2022/12/19 01:54:51;;;;;;;37.83;23.15;;;1.80;99.90;;;;;;5120859;27;20116;-54
2022/12/19 01:57:18;;;;;;;39.75;23.42;;;1.80;99.90;;;;;;5123324;27;20076;-53
2022/12/19 01:59:51;;;;;;;35.25;22.75;;;1.80;99.90;;;;;;5122340;27;20665;-53
2022/12/19 02:02:32;;;;;;;36.38;22.98;;;1.80;99.90;;;;;;5126303;27;20057;-55
2022/12/19 02:05:00;;;;;;;36.25;23.52;;;1.80;99.90;;;;;;5126328;27;20122;-54
2022/12/19 02:07:27;;;;;;;36.13;23.33;;;1.90;99.90;;;;;;5128407;27;20125;-52
2022/12/19 02:09:56;;;;;;;38.35;22.73;;;1.90;99.90;;;;;;5135846;27;20038;-52
2022/12/19 02:12:28;;;;;;;35.97;22.98;;;1.90;99.90;;;;;;5148482;27;20031;-52
2022/12/19 02:14:55;;;;;;;40.78;23.15;;;1.90;99.90;;;;;;5118203;27;20084;-53
2022/12/19 02:18:06;;;;;;;36.95;22.90;;;1.90;99.90;;;;;;5137557;27;20035;-56
2022/12/19 02:21:08;;;;;;;37.83;23.33;;;1.90;99.90;;;;;;5131702;27;20088;-56
2022/12/19 02:24:05;;;;;;;39.25;23.33;;;2.00;99.90;;;;;;5134182;27;20050;-52
2022/12/19 02:27:11;;;;;;;37.03;23.17;;;2.00;99.90;;;;;;5132490;27;20054;-51
2022/12/19 02:29:50;;;;;;;40.83;24.23;;;2.00;99.90;;;;;;5133129;27;20047;-51
2022/12/19 02:32:24;;;;;;;43.92;24.40;;;1.90;99.90;;;;;;5134564;27;20089;-51
2022/12/19 02:34:58;;;;;;;46.15;26.50;;;1.90;99.90;;;;;;5136633;27;20111;-51
2022/12/19 02:37:32;;;;;;;49.90;29.27;;;1.90;99.90;;;;;;5132308;27;20111;-53
2022/12/19 02:40:08;;;;;;;51.08;29.27;;;1.80;99.90;;;;;;5130480;27;20966;-54
2022/12/19 02:42:45;;;;;;;48.45;28.60;;;1.80;99.90;;;;;;5123134;27;20124;-52
2022/12/19 02:45:14;;;;;;;54.57;28.23;;;1.80;99.90;;;;;;5125348;27;20075;-52
2022/12/19 02:47:41;;;;;;;52.50;29.83;;;1.80;99.90;;;;;;5129248;27;20047;-55
2022/12/19 02:50:07;;;;;;;55.65;29.20;;;1.80;99.90;;;;;;5127175;27;20054;-53
2022/12/19 02:52:33;;;;;;;52.90;28.55;;;1.80;99.90;;;;;;5133075;27;20155;-51
2022/12/19 02:55:09;;;;;;;52.63;29.20;;;1.80;99.90;;;;;;5126938;27;20411;-56
2022/12/19 02:57:46;;;;;;;57.78;30.80;;;1.90;99.90;;;;;;5128141;27;20620;-55
2022/12/19 03:00:20;;;;;;;56.47;30.07;;;1.90;99.90;;;;;;5126696;27;20108;-55
2022/12/19 03:03:11;;;;;;;55.20;31.02;;;1.90;99.90;;;;;;5125647;27;20050;-54
2022/12/19 03:05:48;;;;;;;65.47;32.17;;;1.90;99.90;;;;;;5130449;27;20349;-55
2022/12/19 03:08:21;;;;;;;61.33;33.00;;;1.90;99.90;;;;;;5127255;27;20081;-52
2022/12/19 03:11:10;;;;;;;58.25;30.42;;;2.00;99.90;;;;;;5132808;27;21388;-52
2022/12/19 03:13:38;;;;;;;60.03;32.65;;;2.00;99.90;;;;;;5129692;27;20038;-52
2022/12/19 03:16:07;;;;;;;61.67;31.52;;;2.10;99.90;;;;;;5129521;27;20047;-51
2022/12/19 03:18:33;;;;;;;54.78;29.23;;;2.10;99.90;;;;;;5130078;27;20118;-54
2022/12/19 03:21:21;;;;;;;54.17;29.52;;;2.20;99.90;;;;;;5107222;27;20046;-50
2022/12/19 03:23:49;;;;;;;55.30;29.15;;;2.20;99.90;;;;;;5128549;27;20039;-52
2022/12/19 03:26:20;;;;;;;61.67;32.17;;;2.20;99.90;;;;;;5132219;27;20391;-52
2022/12/19 03:28:51;;;;;;;58.30;31.35;;;2.30;99.90;;;;;;5130342;27;20066;-51
2022/12/19 03:31:21;;;;;;;63.75;32.45;;;2.20;99.90;;;;;;5132225;27;20083;-52
2022/12/19 03:33:53;;;;;;;62.67;31.83;;;2.30;99.90;;;;;;5131974;27;20495;-51
2022/12/19 03:36:24;;;;;;;61.25;32.03;;;2.40;99.90;;;;;;5134963;27;20433;-51
2022/12/19 03:38:50;;;;;;;64.88;33.38;;;2.40;99.90;;;;;;5130345;27;20400;-52
2022/12/19 03:43:07;;;;;;;57.08;29.80;;;2.40;99.90;;;;;;5128472;27;20066;-51
2022/12/19 03:44:08;;;;;;;63.42;32.33;;;2.40;99.90;;;;;;5127372;27;20047;-52
2022/12/19 03:46:38;;;;;;;56.00;31.15;;;2.50;99.90;;;;;;5129707;27;20132;-52
2022/12/19 03:49:03;;;;;;;61.70;32.10;;;2.50;99.90;;;;;;5125860;27;20043;-53
2022/12/19 03:51:52;;;;;;;60.63;33.30;;;2.50;99.90;;;;;;5122802;27;20070;-54
2022/12/19 03:54:31;;;;;;;63.35;33.38;;;2.50;99.90;;;;;;5126202;27;20038;-53
2022/12/19 03:57:08;;;;;;;58.13;31.90;;;2.60;99.90;;;;;;5125954;27;20703;-54
2022/12/19 03:59:41;;;;;;;62.75;32.45;;;2.60;99.90;;;;;;5123509;27;20118;-55
2022/12/19 04:02:08;;;;;;;57.83;31.98;;;2.60;99.90;;;;;;5126979;27;20043;-55
2022/12/19 04:04:39;;;;;;;64.80;34.40;;;2.60;99.90;;;;;;5127377;27;20043;-53
2022/12/19 04:07:05;;;;;;;53.28;30.85;;;2.50;99.90;;;;;;5130789;27;20034;-52
2022/12/19 04:09:33;;;;;;;57.67;31.30;;;2.70;99.90;;;;;;5128864;27;20376;-55
2022/12/19 04:12:04;;;;;;;63.17;33.43;;;2.60;99.90;;;;;;5128841;27;20039;-53
2022/12/19 04:14:33;;;;;;;53.63;31.35;;;2.60;99.90;;;;;;5129070;27;20039;-55
2022/12/19 04:17:05;;;;;;;60.13;31.83;;;2.80;99.90;;;;;;5132228;27;20645;-53
2022/12/19 04:19:42;;;;;;;58.00;31.75;;;2.90;99.90;;;;;;5129616;27;20035;-50
2022/12/19 04:22:12;;;;;;;60.22;31.50;;;;;;;;;;5129209;27;20051;-52
2022/12/19 04:24:42;;;;;;;60.85;31.92;;;2.70;99.90;;;;;;5128580;27;20054;-54
2022/12/19 04:27:10;;;;;;;60.05;31.35;;;2.80;99.90;;;;;;5128223;27;20110;-51
2022/12/19 04:29:36;;;;;;;;;;;2.80;99.90;;;;;;5128351;27;20062;-51
2022/12/19 04:32:04;;;;;;;56.53;30.45;;;2.80;99.90;;;;;;5127451;27;19919;-51
2022/12/19 04:34:33;;;;;;;53.95;28.33;;;2.90;99.90;;;;;;5129441;27;20163;-50
2022/12/19 04:37:02;;;;;;;55.90;30.70;;;2.80;99.90;;;;;;5120051;27;20043;-51
2022/12/19 04:39:28;;;;;;;54.65;30.95;;;2.90;99.90;;;;;;5130104;27;20046;-50
2022/12/19 04:41:54;;;;;;;58.47;31.63;;;2.90;99.90;;;;;;5126634;27;20043;-52
2022/12/19 04:44:19;;;;;;;56.35;30.65;;;2.90;99.90;;;;;;5128502;27;20053;-54
2022/12/19 04:46:45;;;;;;;56.58;31.90;;;2.90;99.90;;;;;;5129429;27;20142;-52
2022/12/19 04:49:10;;;;;;;60.53;32.65;;;3.00;99.90;;;;;;5129348;27;20054;-54
2022/12/19 04:51:36;;;;;;;56.92;31.02;;;3.00;99.90;;;;;;5134751;27;20034;-52
2022/12/19 04:54:02;;;;;;;59.47;30.48;;;3.00;99.90;;;;;;5134854;27;20054;-53
2022/12/19 04:56:27;;;;;;;52.88;31.52;;;3.10;99.90;;;;;;5140481;27;20059;-52
2022/12/19 04:58:57;;;;;;;63.92;32.53;;;3.10;99.90;;;;;;5113635;27;20388;-55
2022/12/19 05:01:23;;;;;;;58.67;32.53;;;3.10;99.90;;;;;;5128112;27;20399;-52
2022/12/19 05:03:49;;;;;;;59.60;32.40;;;3.20;99.90;;;;;;5126716;27;20058;-51
2022/12/19 05:06:14;;;;;;;61.22;35.72;;;3.20;99.90;;;;;;5109731;27;20129;-54
2022/12/19 05:08:41;;;;;;;69.47;36.05;;;3.30;99.90;;;;;;5128866;27;20027;-56
2022/12/19 05:11:10;;;;;;;61.85;36.35;;;3.40;99.90;;;;;;5129343;27;20126;-54
2022/12/19 05:13:36;;;;;;;57.28;32.45;;;;;;;;;;5130316;27;20059;-55
2022/12/19 05:16:04;;;;;;;66.50;37.30;;;3.50;99.90;;;;;;5127186;27;20035;-56
2022/12/19 05:18:30;;;;;;;44.33;25.10;;;3.90;99.90;;;;;;5129728;27;20035;-55
2022/12/19 05:20:55;;;;;;;66.80;37.03;;;3.60;99.90;;;;;;5126539;27;20039;-53
2022/12/19 05:23:22;;;;;;;70.22;38.75;;;3.90;99.90;;;;;;5129184;27;20501;-56
2022/12/19 05:25:47;;;;;;;67.75;36.63;;;3.60;99.90;;;;;;5126254;27;20377;-54
2022/12/19 05:28:14;;;;;;;74.30;38.83;;;3.60;99.90;;;;;;5130256;27;20038;-53
2022/12/19 05:30:40;;;;;;;78.03;42.47;;;3.70;99.90;;;;;;5128792;27;20476;-54
2022/12/19 05:33:06;;;;;;;60.72;31.45;;;3.70;99.90;;;;;;5127238;27;20039;-54
2022/12/19 05:35:33;;;;;;;65.03;36.75;;;3.70;99.90;;;;;;5123442;27;20078;-55
2022/12/19 05:37:58;;;;;;;72.13;36.92;;;3.80;99.90;;;;;;5123889;27;20039;-51
2022/12/19 05:40:24;;;;;;;74.85;41.15;;;3.80;99.90;;;;;;5123295;27;20050;-55
2022/12/19 05:42:49;;;;;;;60.05;32.95;;;3.90;99.90;;;;;;5123644;27;20096;-52
2022/12/19 05:45:15;;;;;;;63.85;35.83;;;3.90;99.90;;;;;;5131484;27;20035;-52
2022/12/19 05:47:43;;;;;;;57.10;33.72;;;3.80;99.90;;;;;;5136258;27;20435;-55
2022/12/19 05:50:09;;;;;;;62.30;36.65;;;3.80;99.90;;;;;;5126714;27;20570;-55
2022/12/19 05:52:35;;;;;;;58.72;34.35;;;3.90;99.90;;;;;;5127062;27;20038;-56
2022/12/19 05:55:01;;;;;;;58.50;35.13;;;3.90;99.90;;;;;;5130293;27;20047;-55
2022/12/19 05:57:26;;;;;;;59.35;36.22;;;4.00;99.90;;;;;;5128465;27;20030;-57
2022/12/19 05:59:52;;;;;;;69.40;40.08;;;3.90;99.90;;;;;;5127013;27;20058;-55
2022/12/19 06:02:18;;;;;;;60.70;36.17;;;4.10;99.90;;;;;;5124979;27;20126;-55
2022/12/19 06:04:44;;;;;;;66.60;39.67;;;4.00;99.90;;;;;;5127344;27;20491;-54
2022/12/19 06:07:09;;;;;;;68.28;37.80;;;4.00;99.90;;;;;;5127456;27;20031;-56
2022/12/19 06:09:35;;;;;;;65.53;39.53;;;4.10;99.90;;;;;;5131330;27;20170;-51
2022/12/19 06:12:01;;;;;;;56.80;34.50;;;4.20;99.90;;;;;;5124532;27;20050;-54
2022/12/19 06:14:26;;;;;;;55.72;33.85;;;4.20;99.90;;;;;;5124302;27;20035;-52
2022/12/19 06:16:52;;;;;;;55.08;32.22;;;4.20;99.90;;;;;;5125458;27;20122;-50
2022/12/19 06:19:21;;;;;;;57.00;33.85;;;4.30;99.90;;;;;;5125673;27;20055;-54
2022/12/19 06:21:46;;;;;;;61.67;33.58;;;4.30;99.90;;;;;;5129109;27;20166;-50
2022/12/19 06:24:12;;;;;;;58.95;33.72;;;4.30;99.90;;;;;;5137818;27;20134;-51
2022/12/19 06:26:37;;;;;;;60.38;34.85;;;4.20;99.90;;;;;;5140874;27;20059;-52
2022/12/19 06:29:03;;;;;;;46.83;28.95;;;4.30;99.90;;;;;;5127935;27;20090;-53
2022/12/19 06:31:28;;;;;;;54.05;31.80;;;4.30;99.90;;;;;;5126000;27;20406;-53
2022/12/19 06:33:54;;;;;;;58.22;34.05;;;4.20;99.90;;;;;;5129856;27;20039;-51
2022/12/19 06:36:23;;;;;;;49.47;30.02;;;4.20;99.90;;;;;;5140415;27;20091;-51
2022/12/19 06:38:49;;;;;;;;;;;4.30;99.90;;;;;;5138736;27;20991;-51
2022/12/19 06:44:02;;;;;;;54.03;29.60;;;4.30;99.90;;;;;;5137024;27;20043;-51
2022/12/19 06:46:28;;;;;;;53.50;31.20;;;4.20;99.90;;;;;;5116634;27;20545;-51
2022/12/19 06:48:54;;;;;;;56.65;31.98;;;4.20;99.90;;;;;;5129373;27;20039;-52
2022/12/19 06:51:20;;;;;;;62.15;33.47;;;4.30;99.90;;;;;;5129450;27;20404;-52
2022/12/19 06:53:46;;;;;;;52.60;31.27;;;4.30;99.90;;;;;;5132674;27;20099;-55
2022/12/19 06:56:14;;;;;;;54.28;30.65;;;4.30;99.90;;;;;;5130850;27;20047;-55
2022/12/19 06:58:39;;;;;;;53.03;30.30;;;4.30;99.90;;;;;;5133104;27;20087;-50
2022/12/19 07:01:05;;;;;;;54.22;30.33;;;4.40;99.90;;;;;;5144918;27;20395;-54
2022/12/19 07:03:37;;;;;;;52.33;29.23;;;4.30;99.90;;;;;;5129434;27;20042;-52
2022/12/19 07:06:03;;;;;;;50.08;28.02;;;4.40;99.90;;;;;;5132258;27;20478;-54
2022/12/19 07:08:29;;;;;;;45.75;27.98;;;4.40;99.90;;;;;;5130627;27;20039;-51
2022/12/19 07:10:55;;;;;;;49.00;29.17;;;4.40;99.90;;;;;;5131249;27;20042;-53
2022/12/19 07:13:21;;;;;;;47.03;27.95;;;4.50;99.90;;;;;;5132829;27;20083;-54
2022/12/19 07:15:47;;;;;;;49.28;28.48;;;4.40;99.90;;;;;;5130961;27;20062;-51
2022/12/19 07:18:13;;;;;;;43.45;26.20;;;4.50;99.90;;;;;;5131334;27;20054;-52
2022/12/19 07:20:41;;;;;;;46.00;26.70;;;4.60;99.90;;;;;;5106716;27;20043;-51
2022/12/19 07:23:13;;;;;;;43.45;25.50;;;4.50;99.90;;;;;;5127813;27;20065;-55
2022/12/19 07:25:38;;;;;;;45.80;26.77;;;4.50;99.90;;;;;;5129182;27;20133;-54
2022/12/19 07:28:06;;;;;;;51.33;27.83;;;4.50;99.90;;;;;;5127061;27;20103;-51
2022/12/19 07:30:31;;;;;;;42.77;26.70;;;4.60;99.90;;;;;;5126304;27;20483;-53
2022/12/19 07:32:57;;;;;;;48.15;27.80;;;4.60;99.90;;;;;;5125142;27;20319;-52
2022/12/19 07:35:23;;;;;;;52.80;26.88;;;4.60;99.90;;;;;;5128951;27;20039;-52
2022/12/19 07:37:49;;;;;;;47.53;25.45;;;4.60;99.90;;;;;;5128135;27;20062;-55
2022/12/19 07:40:16;;;;;;;46.60;26.80;;;4.60;99.90;;;;;;5130940;27;20088;-50
2022/12/19 07:42:42;;;;;;;49.05;27.60;;;4.70;99.90;;;;;;5126547;27;20047;-52
2022/12/19 07:45:08;;;;;;;54.17;26.55;;;4.60;99.90;;;;;;5125892;27;20042;-51
2022/12/19 07:47:33;;;;;;;47.17;26.88;;;4.70;99.90;;;;;;5132847;27;20042;-54
2022/12/19 07:50:00;;;;;;;44.95;26.08;;;4.70;99.90;;;;;;5129378;27;20031;-54
2022/12/19 07:52:26;;;;;;;43.17;24.13;;;4.80;99.90;;;;;;5129933;27;20125;-53
2022/12/19 07:54:51;;;;;;;43.05;26.65;;;4.80;99.90;;;;;;5130560;27;20135;-52
2022/12/19 07:57:17;;;;;;;42.40;25.13;;;4.80;99.90;;;;;;5132810;27;20051;-50
2022/12/19 07:59:43;;;;;;;46.42;25.75;;;4.70;99.90;;;;;;5131014;27;20394;-51
2022/12/19 08:02:09;;;;;;;42.35;24.30;;;4.80;99.90;;;;;;5127548;27;20039;-50
2022/12/19 08:04:34;;;;;;;41.28;25.13;;;4.80;99.90;;;;;;5130723;27;20046;-51
2022/12/19 08:07:01;;;;;;;40.63;25.83;;;4.90;99.90;;;;;;5132175;27;20034;-52
2022/12/19 08:09:27;;;;;;;46.97;25.67;;;4.90;99.90;;;;;;5137452;27;20050;-52
2022/12/19 08:11:53;;;;;;;45.55;26.30;;;4.80;99.90;;;;;;5134633;27;20039;-51
2022/12/19 08:14:19;;;;;;;51.05;26.20;;;4.90;99.90;;;;;;5137994;27;20039;-54
2022/12/19 08:16:45;;;;;;;46.35;26.70;;;5.00;99.90;;;;;;5136795;27;21373;-53
2022/12/19 08:19:11;;;;;;;52.78;27.35;;;5.00;99.90;;;;;;5138169;27;20039;-51
2022/12/19 08:21:36;;;;;;;46.88;26.13;;;5.00;99.90;;;;;;5142110;27;20079;-56
2022/12/19 08:24:02;;;;;;;48.53;27.05;;;5.00;99.90;;;;;;5140754;27;20114;-56
2022/12/19 08:26:28;;;;;;;44.75;25.13;;;5.10;99.90;;;;;;5138852;27;20039;-54
2022/12/19 08:28:55;;;;;;;46.10;26.38;;;5.10;99.90;;;;;;5137338;27;20042;-55
2022/12/19 08:31:23;;;;;;;45.55;25.90;;;5.10;99.90;;;;;;5135274;27;20407;-52
2022/12/19 08:33:50;;;;;;;49.85;26.88;;;5.20;99.90;;;;;;5111593;27;20039;-52
2022/12/19 08:36:18;;;;;;;46.00;25.40;;;5.10;99.90;;;;;;5135172;27;20043;-53
2022/12/19 08:38:44;;;;;;;42.08;25.40;;;5.30;99.90;;;;;;5134888;27;20550;-52
2022/12/19 08:41:10;;;;;;;42.97;25.60;;;5.20;99.90;;;;;;5139036;27;20056;-54
2022/12/19 08:43:37;;;;;;;43.63;25.52;;;5.30;99.90;;;;;;5134743;27;20135;-52
2022/12/19 08:46:03;;;;;;;45.05;26.02;;;5.40;99.90;;;;;;5136534;27;20042;-52
2022/12/19 08:48:30;;;;;;;44.60;26.25;;;5.30;99.90;;;;;;5139342;27;20083;-52
2022/12/19 08:50:57;;;;;;;42.00;25.73;;;5.30;99.90;;;;;;5140551;27;20479;-54
2022/12/19 08:53:25;;;;;;;46.45;26.73;;;5.50;99.90;;;;;;5130999;27;20521;-53
2022/12/19 08:55:55;;;;;;;46.60;27.08;;;5.50;99.90;;;;;;5127976;27;20399;-52
2022/12/19 08:58:24;;;;;;;43.75;26.70;;;5.50;99.90;;;;;;5131209;27;20066;-51
2022/12/19 09:00:52;;;;;;;43.55;26.83;;;5.60;99.90;;;;;;5126984;27;20104;-54
2022/12/19 09:03:18;;;;;;;44.88;27.40;;;5.60;99.90;;;;;;5127833;27;20099;-51
2022/12/19 09:05:44;;;;;;;43.47;25.67;;;5.60;99.90;;;;;;5135891;27;20394;-51
2022/12/19 09:08:10;;;;;;;43.65;28.00;;;5.60;99.90;;;;;;5137403;27;20035;-53
2022/12/19 09:10:36;;;;;;;40.97;25.85;;;5.70;99.90;;;;;;5132259;27;20039;-54
2022/12/19 09:13:03;;;;;;;46.83;27.35;;;5.60;99.90;;;;;;5136951;27;20039;-51
2022/12/19 09:15:29;;;;;;;44.90;27.58;;;5.70;99.90;;;;;;5136765;27;20066;-53
2022/12/19 09:17:55;;;;;;;41.75;27.23;;;5.70;99.90;;;;;;5118749;27;20080;-51
2022/12/19 09:20:21;;;;;;;43.95;27.25;;;5.80;99.90;;;;;;5138755;27;20051;-56
2022/12/19 09:22:46;;;;;;;43.53;26.15;;;5.80;99.90;;;;;;5140717;27;20080;-51
2022/12/19 09:25:12;;;;;;;45.22;27.65;;;5.70;99.90;;;;;;5142787;27;20083;-53
2022/12/19 10:18:21;;;;;;;30.05;20.30;;;6.40;99.90;;;;;;4705185;22;20126;-76
2022/12/19 10:20:57;;;;;;;29.85;20.50;;;6.30;99.90;;;;;;5079115;28;20079;-76
2022/12/19 10:23:29;;;;;;;27.92;19.02;;;6.40;99.90;;;;;;5071770;28;20044;-78
2022/12/19 10:26:10;;;;;;;30.55;19.65;;;6.70;99.90;;;;;;5042866;28;20060;-77
2022/12/19 10:28:59;;;;;;;26.90;18.52;;;6.50;99.90;;;;;;5057596;28;20057;-77
2022/12/19 10:31:42;;;;;;;28.33;20.15;;;6.50;99.90;;;;;;5073958;28;20044;-77
2022/12/19 10:34:36;;;;;;;30.30;20.40;;;6.50;99.90;;;;;;5077605;28;20163;-77
2022/12/19 10:37:25;;;;;;;26.05;17.08;;;6.50;99.90;;;;;;5045891;28;20051;-77
2022/12/19 10:40:05;;;;;;;29.67;18.65;;;6.50;99.90;;;;;;5052935;28;20044;-77
2022/12/19 10:42:43;;;;;;;22.90;17.42;;;6.60;99.90;;;;;;5063473;28;20090;-77
2022/12/19 10:45:13;;;;;;;;;;;6.60;99.90;;;;;;5064298;28;20051;-77
2022/12/19 10:47:39;;;;;;;23.95;17.40;;;6.60;99.90;;;;;;5074702;28;20047;-77
2022/12/19 10:50:10;;;;;;;25.58;18.65;;;6.60;99.90;;;;;;5076225;28;20428;-76
2022/12/19 10:52:51;;;;;;;26.17;17.17;;;6.60;99.90;;;;;;5064259;28;20041;-77
2022/12/19 10:55:39;;;;;;;22.23;16.50;;;6.70;99.90;;;;;;5040574;28;20070;-77
2022/12/19 10:58:14;;;;;;;25.58;17.17;;;6.70;99.90;;;;;;5044308;28;20103;-77
2022/12/19 11:01:00;;;;;;;23.42;16.35;;;6.70;99.90;;;;;;5066436;28;20447;-77
2022/12/19 11:03:27;;;;;;;19.50;15.10;;;;;;;;;;5069412;28;20394;-77
2022/12/19 11:05:55;;;;;;;24.83;17.52;;;6.80;99.90;;;;;;5056864;28;20067;-77
2022/12/19 11:08:29;;;;;;;22.92;17.20;;;6.80;99.90;;;;;;5072812;28;20048;-77
2022/12/19 11:11:10;;;;;;;23.17;16.85;;;6.90;99.90;;;;;;5071285;28;20072;-77
2022/12/19 11:13:43;;;;;;;28.23;17.33;;;6.80;99.90;;;;;;5066871;28;20057;-77
2022/12/19 11:16:10;;;;;;;24.42;16.90;;;6.90;99.90;;;;;;5073398;28;20051;-77
2022/12/19 11:18:41;;;;;;;23.30;16.70;;;6.80;99.90;;;;;;5054034;28;20052;-77
2022/12/19 11:21:25;;;;;;;25.13;16.23;;;6.80;99.90;;;;;;5050160;28;20099;-77
2022/12/19 11:23:54;;;;;;;27.95;16.33;;;7.00;99.90;;;;;;5047472;28;20056;-77
2022/12/19 11:26:27;;;;;;;23.35;17.08;;;6.90;99.90;;;;;;5058268;28;20368;-77
2022/12/19 11:28:54;;;;;;;27.60;17.48;;;6.90;99.90;;;;;;5058597;28;20457;-77
2022/12/19 11:31:25;;;;;;;24.02;16.20;;;6.90;99.90;;;;;;5053419;28;20045;-77
2022/12/19 11:34:02;;;;;;;25.52;17.25;;;6.90;99.90;;;;;;5053264;28;20087;-77
2022/12/19 11:36:37;;;;;;;23.95;16.50;;;6.90;99.90;;;;;;5055949;28;20073;-78
2022/12/19 11:39:10;;;;;;;25.00;17.73;;;6.90;99.90;;;;;;5062491;28;20392;-76
2022/12/19 11:41:46;;;;;;;24.60;17.02;;;6.90;99.90;;;;;;5051826;28;20040;-77
2022/12/19 11:44:37;;;;;;;23.85;16.63;;;7.00;99.90;;;;;;5056525;28;20199;-77
2022/12/19 11:47:24;;;;;;;21.70;16.48;;;7.00;99.90;;;;;;5054505;28;20041;-76
2022/12/19 11:50:12;;;;;;;21.35;16.08;;;7.00;99.90;;;;;;5054639;28;20045;-77
2022/12/19 11:53:17;;;;;;;19.48;15.55;;;7.20;99.90;;;;;;5048564;28;20091;-77
2022/12/19 11:55:57;;;;;;;21.33;15.95;;;7.10;99.90;;;;;;5047024;28;20128;-77
2022/12/19 11:58:27;;;;;;;20.35;15.82;;;7.20;99.90;;;;;;5053712;28;20125;-77
2022/12/19 12:01:16;;;;;;;20.25;15.88;;;7.40;99.90;;;;;;5054094;28;20045;-77
2022/12/19 12:04:06;;;;;;;19.42;14.90;;;7.20;99.90;;;;;;5031212;28;20094;-77
2022/12/19 12:06:49;;;;;;;22.27;16.23;;;7.20;99.90;;;;;;5049170;28;20060;-76
2022/12/19 12:09:32;;;;;;;21.00;15.90;;;7.30;99.90;;;;;;5044863;28;20041;-77
2022/12/19 12:12:43;;;;;;;18.77;14.43;;;7.40;99.90;;;;;;5019173;28;20099;-77
2022/12/19 12:15:40;;;;;;;20.00;14.63;;;7.40;99.90;;;;;;5046683;28;20077;-77
2022/12/19 12:18:27;;;;;;;19.08;15.02;;;7.60;99.90;;;;;;5039277;28;20045;-77
2022/12/19 12:21:20;;;;;;;19.10;14.43;;;7.70;99.90;;;;;;5052828;28;20040;-77
2022/12/19 12:24:26;;;;;;;18.33;14.88;;;7.80;99.90;;;;;;5050004;28;20036;-77
2022/12/19 12:26:58;;;;;;;20.75;14.32;;;7.40;99.90;;;;;;5026857;28;20049;-77
2022/12/19 12:29:30;;;;;;;17.42;13.60;;;7.70;99.90;;;;;;5048370;28;20068;-77
2022/12/19 12:32:22;;;;;;;19.25;13.40;;;7.70;99.90;;;;;;5036782;28;20107;-77
2022/12/19 12:35:16;;;;;;;15.00;12.93;;;7.50;99.90;;;;;;5045009;28;20439;-77
2022/12/19 12:38:08;;;;;;;17.98;13.50;;;7.40;99.90;;;;;;5056616;28;20045;-76
2022/12/19 12:41:07;;;;;;;16.80;12.82;;;7.60;99.90;;;;;;5050374;28;20041;-77
2022/12/19 12:43:45;;;;;;;14.90;12.00;;;7.70;99.90;;;;;;5055212;28;20053;-78
2022/12/19 12:46:22;;;;;;;15.48;12.73;;;7.50;99.90;;;;;;5046158;28;20095;-77
2022/12/19 12:49:03;;;;;;;16.17;11.95;;;7.70;99.90;;;;;;5042773;28;20138;-77
2022/12/19 12:51:32;;;;;;;15.23;12.27;;;7.80;99.90;;;;;;5046216;28;20052;-77
2022/12/19 12:54:16;;;;;;;17.42;13.00;;;7.80;99.90;;;;;;5055281;28;20037;-77
2022/12/19 12:56:44;;;;;;;16.15;11.82;;;7.90;99.90;;;;;;5059157;28;20049;-76
2022/12/19 12:59:25;;;;;;;16.08;11.98;;;7.80;99.90;;;;;;5050507;28;20048;-77
2022/12/19 13:01:58;;;;;;;15.85;11.77;;;7.60;99.90;;;;;;5053031;28;20048;-77
2022/12/19 13:04:34;;;;;;;16.38;12.15;;;7.60;99.90;;;;;;5053719;28;20823;-77
2022/12/19 13:07:19;;;;;;;15.93;12.45;;;7.60;99.90;;;;;;5053724;28;20088;-77
2022/12/19 13:09:47;;;;;;;17.38;12.75;;;;;;;;;;5054025;28;20045;-77
2022/12/19 13:15:27;;;;;;;13.48;11.52;;;8.00;99.90;;;;;;5048305;28;20089;-77
2022/12/19 13:17:53;;;;;;;16.05;11.10;;;7.70;99.90;;;;;;5052988;28;20091;-77
2022/12/19 13:20:25;;;;;;;16.23;11.70;;;;;;;;;;5053399;28;20092;-76
2022/12/19 13:22:57;;;;;;;15.63;11.38;;;7.70;99.90;;;;;;5050661;28;20041;-76
2022/12/19 13:25:25;;;;;;;12.88;11.13;;;7.80;99.90;;;;;;5033250;28;20044;-77
2022/12/19 13:28:18;;;;;;;15.13;11.38;;;7.70;99.90;;;;;;5052086;28;20041;-76
2022/12/19 13:31:03;;;;;;;13.82;11.43;;;;;;;;;;5039631;28;20065;-77
2022/12/19 13:34:14;;;;;;;11.45;10.10;;;7.90;99.90;;;;;;5049770;28;20041;-77
2022/12/19 13:36:46;;;;;;;12.23;10.45;;;7.80;99.90;;;;;;5043400;28;20053;-77
2022/12/19 13:39:40;;;;;;;13.43;10.32;;;7.80;99.90;;;;;;5044497;28;20586;-77
2022/12/19 13:45:03;;;;;;;13.52;9.77;;;7.90;99.90;;;;;;5060590;28;20052;-76
2022/12/19 13:47:33;;;;;;;12.70;9.68;;;7.80;99.90;;;;;;5038479;28;20390;-76
2022/12/19 13:50:03;;;;;;;13.60;9.60;;;;;;;;;;5054473;28;20213;-76
2022/12/19 13:52:28;;;;;;;10.93;9.85;;;7.90;99.90;;;;;;5039487;28;20045;-75
2022/12/19 13:54:58;;;;;;;11.15;9.48;;;7.90;99.90;;;;;;5051326;28;20041;-76
2022/12/19 13:57:25;;;;;;;12.85;9.45;;;7.90;99.90;;;;;;5051608;28;20466;-77
2022/12/19 13:59:54;;;;;;;12.02;9.70;;;7.90;99.90;;;;;;5055964;28;20055;-76
2022/12/19 14:02:27;;;;;;;12.70;9.85;;;7.90;99.90;;;;;;5055781;28;20045;-77